Return to the overview of this dataset or to the list of all FOR816 datasets.


Value filter for entity: Microclimate(id: 406) of dataset: Forest microclimate ECSF tree T11a understorey (z1) (dsid: 610)

Select attribute to work with:



Order by

Aggregate by date/time

on attribute:

Draw graph of subset

    x     y1     y2  
     
Ta_2m (air temperature in 2m)
Huma_2m (Air humidity 2m)
datetime (Date and Time)

Results:

page: 1 / 71 , page size: , max results: 3540

Ta_2m Huma_2m datetime
15.57 78.1 2004-01-21 21:00:00
15.19 80.0 2004-01-21 21:30:00
15.09 77.7 2004-01-21 22:00:00
14.87 82.4 2004-01-21 22:30:00
14.49 82.8 2004-01-21 23:00:00
14.13 86.4 2004-01-21 23:30:00
13.99 87.7 2004-01-22 00:00:00
13.92 86.0 2004-01-22 00:30:00
13.75 88.6 2004-01-22 01:00:00
13.6 84.6 2004-01-22 01:30:00
13.34 89.4 2004-01-22 02:00:00
12.91 87.7 2004-01-22 02:30:00
13.0 88.1 2004-01-22 03:00:00
12.81 87.7 2004-01-22 03:30:00
12.45 86.8 2004-01-22 04:00:00
12.21 87.3 2004-01-22 04:30:00
11.87 87.7 2004-01-22 05:00:00
11.41 88.1 2004-01-22 05:30:00
10.87 88.1 2004-01-22 06:00:00
10.43 90.2 2004-01-22 06:30:00
10.23 91.5 2004-01-22 07:00:00
10.5 92.7 2004-01-22 07:30:00
11.84 87.3 2004-01-22 08:00:00
12.66 82.4 2004-01-22 08:30:00
13.32 72.8 2004-01-22 09:00:00
14.06 66.3 2004-01-22 09:30:00
15.19 60.7 2004-01-22 10:00:00
16.38 51.4 2004-01-22 10:30:00
17.28 48.8 2004-01-22 11:00:00
18.33 46.7 2004-01-22 11:30:00
19.57 42.6 2004-01-22 12:00:00
20.52 36.6 2004-01-22 12:30:00
21.54 36.6 2004-01-22 13:00:00
21.85 44.2 2004-01-22 13:30:00
22.12 41.1 2004-01-22 14:00:00
21.97 39.1 2004-01-22 14:30:00
21.3 47.7 2004-01-22 15:00:00
21.3 43.1 2004-01-22 15:30:00
21.21 39.6 2004-01-22 16:00:00
20.71 43.6 2004-01-22 16:30:00
20.09 47.2 2004-01-22 17:00:00
19.04 59.1 2004-01-22 17:30:00
18.19 65.3 2004-01-22 18:00:00
17.54 67.3 2004-01-22 18:30:00
16.95 72.8 2004-01-22 19:00:00
16.54 72.3 2004-01-22 19:30:00
16.21 74.8 2004-01-22 20:00:00
15.88 75.7 2004-01-22 20:30:00
15.59 78.6 2004-01-22 21:00:00
15.19 82.4 2004-01-22 21:30:00

page: 1 / 71 , max results: 3540


Return to the overview of this dataset or to the list of all FOR816 datasets.



Quick search

  • Publications:
  • Datasets: